Time;durP1;ratioP1;P1;durP2;ratioP2;P2;SDS_P1;SDS_P2;PMS_P1;PMS_P2;Temp;Humidity;BMP_temperature;BMP_pressure;BME280_temperature;BME280_humidity;BME280_pressure;Samples;Min_cycle;Max_cycle;Signal;HPM_P1;HPM_P2
2021/09/30 00:00:32;;;;;;;10.10;1.60;;;;;;;7.45;100.00;102517.59;5141834;28;20197;-78
2021/09/30 00:03:02;;;;;;;5.88;1.40;;;;;;;7.44;100.00;102524.75;5158756;28;20072;-78
2021/09/30 00:05:33;;;;;;;8.80;2.65;;;;;;;7.46;100.00;102516.63;5158980;28;20056;-77
2021/09/30 00:08:05;;;;;;;6.53;1.50;;;;;;;7.45;100.00;102530.94;5159315;28;20062;-78
2021/09/30 00:10:37;;;;;;;12.75;1.90;;;;;;;7.48;100.00;102533.38;5158306;28;20034;-77
2021/09/30 00:13:28;;;;;;;3.08;1.60;;;;;;;7.50;100.00;102536.81;5158943;28;20117;-78
2021/09/30 00:32:52;;;;;;;10.63;1.58;;;;;;;7.35;100.00;102541.38;5159318;28;20037;-78
2021/09/30 00:40:58;;;;;;;14.52;3.08;;;;;;;7.27;100.00;102539.22;5158554;28;20678;-78
2021/09/30 00:46:23;;;;;;;7.72;1.92;;;;;;;7.33;100.00;102548.66;5148124;28;20102;-78
2021/09/30 00:54:22;;;;;;;5.68;1.85;;;;;;;7.33;100.00;102545.09;5158300;28;20205;-78
2021/09/30 01:21:28;;;;;;;5.60;1.83;;;;;;;7.14;100.00;102557.03;5153370;28;20033;-78
2021/09/30 01:31:25;;;;;;;5.55;1.55;;;;;;;7.11;100.00;102556.38;5162501;28;20036;-78
2021/09/30 01:33:32;;;;;;;5.90;1.48;;;;;;;7.10;100.00;102557.34;5162302;28;20547;-78
2021/09/30 01:57:44;;;;;;;7.50;1.50;;;;;;;7.18;100.00;102545.19;5162069;28;20368;-78
2021/09/30 02:18:10;;;;;;;12.23;1.92;;;;;;;7.09;100.00;102550.28;5161260;28;20391;-78
2021/09/30 02:19:08;;;;;;;7.72;2.28;;;;;;;6.63;100.00;102540.84;5160976;28;20030;-77
2021/09/30 02:22:01;;;;;;;10.15;2.08;;;;;;;6.56;100.00;102546.66;5161141;28;20034;-77
2021/09/30 02:27:21;;;;;;;4.78;1.52;;;;;;;6.39;100.00;102532.59;5161406;28;20034;-77
2021/09/30 02:30:15;;;;;;;7.22;1.95;;;;;;;6.34;100.00;102537.38;5160656;28;20105;-78
2021/09/30 02:58:37;;;;;;;20.35;4.30;;;;;;;6.32;100.00;102559.72;5160205;28;20343;-77
2021/09/30 03:01:13;;;;;;;10.40;1.92;;;;;;;6.38;100.00;102565.53;5160083;28;20116;-77
2021/09/30 03:03:45;;;;;;;7.93;1.70;;;;;;;6.43;100.00;102565.25;5160424;28;20042;-78
2021/09/30 03:06:15;;;;;;;8.63;1.80;;;;;;;6.44;100.00;102565.16;5160538;28;20026;-77
2021/09/30 03:08:51;;;;;;;8.93;2.20;;;;;;;6.43;100.00;102573.25;5159801;28;20028;-78
2021/09/30 03:11:23;;;;;;;8.50;2.63;;;;;;;6.45;100.00;102577.53;5161749;28;20034;-78
2021/09/30 03:13:56;;;;;;;10.25;2.85;;;;;;;6.45;100.00;102574.84;5159885;28;20037;-77
2021/09/30 03:16:42;;;;;;;6.32;2.15;;;;;;;6.42;100.00;102567.03;5160192;28;20049;-78
2021/09/30 03:19:19;;;;;;;;;;;;;;;6.39;100.00;102561.91;5160158;28;20054;-78
2021/09/30 03:24:43;;;;;;;6.80;2.10;;;;;;;6.28;100.00;102571.56;5160345;28;20537;-78
2021/09/30 03:27:14;;;;;;;17.55;3.40;;;;;;;6.30;100.00;102573.16;5142887;28;20097;-78
2021/09/30 03:29:45;;;;;;;7.70;1.92;;;;;;;6.31;100.00;102568.69;5159697;28;20460;-78
2021/09/30 03:32:17;;;;;;;8.65;2.50;;;;;;;6.31;100.00;102576.69;5159787;28;20105;-79
2021/09/30 03:34:47;;;;;;;12.48;2.90;;;;;;;6.36;100.00;102570.09;5142283;28;20034;-78
2021/09/30 03:37:18;;;;;;;6.15;2.00;;;;;;;6.36;100.00;102570.09;5159505;28;20033;-78
2021/09/30 03:39:48;;;;;;;9.52;2.53;;;;;;;6.35;100.00;102570.22;5142160;28;20032;-79
2021/09/30 03:42:19;;;;;;;13.93;2.53;;;;;;;6.32;100.00;102570.38;5156523;28;20544;-78
2021/09/30 03:44:49;;;;;;;8.05;2.40;;;;;;;6.31;100.00;102577.53;5149366;28;20546;-78
2021/09/30 03:47:20;;;;;;;6.97;2.25;;;;;;;6.35;100.00;102575.53;5158779;28;20026;-78
2021/09/30 03:49:52;;;;;;;11.35;2.88;;;;;;;6.36;100.00;102574.56;5126662;28;20022;-77
2021/09/30 04:00:18;;;;;;;12.18;2.47;;;;;;;6.39;100.00;102593.91;5142674;28;20041;-78
2021/09/30 04:02:48;;;;;;;7.93;2.47;;;;;;;6.36;100.00;102587.91;5159554;28;20140;-78
2021/09/30 04:05:19;;;;;;;14.10;2.65;;;;;;;6.35;100.00;102588.88;5142197;28;20113;-78
2021/09/30 04:07:49;;;;;;;12.77;2.38;;;;;;;6.33;100.00;102593.44;5159796;28;20030;-79
2021/09/30 04:10:20;;;;;;;9.27;2.30;;;;;;;6.29;100.00;102598.09;5159561;28;20046;-79
2021/09/30 04:12:50;;;;;;;9.38;2.00;;;;;;;6.21;100.00;102595.91;5160760;28;20034;-79
2021/09/30 04:15:21;;;;;;;9.77;3.20;;;;;;;6.13;100.00;102602.69;5127398;28;20026;-79
2021/09/30 04:17:51;;;;;;;12.65;2.72;;;;;;;6.09;100.00;102596.69;5160827;28;20038;-79
2021/09/30 04:20:23;;;;;;;5.72;2.22;;;;;;;6.06;100.00;102596.84;5159919;28;20053;-78
2021/09/30 04:22:53;;;;;;;7.90;2.30;;;;;;;6.00;100.00;102594.56;5161338;28;20030;-78
2021/09/30 04:25:24;;;;;;;17.15;3.97;;;;;;;5.96;100.00;102607.22;5112304;28;20534;-79
2021/09/30 04:27:55;;;;;;;7.82;2.58;;;;;;;5.93;100.00;102607.41;5160706;28;20049;-78
2021/09/30 04:30:25;;;;;;;6.65;2.50;;;;;;;5.88;100.00;102614.81;5160398;28;20040;-79
2021/09/30 04:32:55;;;;;;;9.30;2.65;;;;;;;5.81;100.00;102613.44;5145909;28;20045;-79
2021/09/30 04:35:26;;;;;;;13.23;2.75;;;;;;;5.79;100.00;102618.00;5146899;28;20034;-79
2021/09/30 04:37:57;;;;;;;11.38;2.92;;;;;;;5.76;100.00;102615.53;5146678;28;20108;-79
2021/09/30 04:40:28;;;;;;;9.80;2.90;;;;;;;5.74;100.00;102622.75;5163365;28;20398;-79
2021/09/30 04:42:58;;;;;;;9.43;3.05;;;;;;;5.72;100.00;102621.97;5130544;28;20026;-78
2021/09/30 04:45:29;;;;;;;16.08;3.03;;;;;;;5.70;100.00;102616.75;5162917;28;20037;-78
2021/09/30 04:48:00;;;;;;;7.97;2.45;;;;;;;5.69;100.00;102619.50;5164512;28;20022;-79
2021/09/30 04:50:30;;;;;;;14.57;3.22;;;;;;;5.65;100.00;102617.97;5147999;28;20041;-79
2021/09/30 04:53:02;;;;;;;15.73;3.40;;;;;;;5.65;100.00;102613.50;5148667;28;20105;-80
2021/09/30 04:55:32;;;;;;;9.32;2.90;;;;;;;5.65;100.00;102612.66;5167824;28;20033;-80
2021/09/30 04:58:02;;;;;;;5.38;2.63;;;;;;;5.64;100.00;102614.44;5165730;28;20014;-79
2021/09/30 05:00:33;;;;;;;15.65;2.72;;;;;;;5.59;100.00;102613.03;5162691;28;20046;-78
2021/09/30 05:03:03;;;;;;;11.38;2.83;;;;;;;5.58;100.00;102622.81;5146094;28;20399;-78
2021/09/30 05:05:34;;;;;;;7.97;2.67;;;;;;;5.59;100.00;102621.84;5145489;28;20185;-78
2021/09/30 05:08:05;;;;;;;16.45;3.10;;;;;;;5.55;100.00;102622.97;5162571;28;20022;-78
2021/09/30 05:10:36;;;;;;;13.07;3.20;;;;;;;5.54;100.00;102628.41;5162176;28;20032;-78
2021/09/30 05:13:10;;;;;;;7.38;2.45;;;;;;;5.51;100.00;102629.44;5145606;28;20022;-77
2021/09/30 05:15:40;;;;;;;10.60;2.85;;;;;;;5.49;100.00;102630.47;5145380;28;20034;-80
2021/09/30 05:18:12;;;;;;;11.75;3.13;;;;;;;5.48;100.00;102626.13;5112967;28;20041;-79
2021/09/30 05:20:43;;;;;;;13.45;3.00;;;;;;;5.49;100.00;102631.34;5162160;28;20391;-78
2021/09/30 05:23:13;;;;;;;4.70;2.63;;;;;;;5.49;100.00;102631.34;5144952;28;20027;-79
2021/09/30 05:25:44;;;;;;;9.68;2.60;;;;;;;5.48;100.00;102628.78;5162253;28;20374;-77
2021/09/30 05:28:14;;;;;;;6.30;2.85;;;;;;;5.48;100.00;102626.13;5145426;28;20023;-79
2021/09/30 05:30:45;;;;;;;11.93;3.47;;;;;;;5.55;100.00;102632.78;5162568;28;20133;-78
2021/09/30 05:33:16;;;;;;;10.48;3.03;;;;;;;5.59;100.00;102635.16;5162161;28;20509;-78
2021/09/30 05:35:47;;;;;;;15.10;3.17;;;;;;;5.64;100.00;102634.91;5163774;28;20045;-79
2021/09/30 05:38:18;;;;;;;15.70;4.03;;;;;;;5.68;100.00;102629.31;5162966;28;20022;-78
2021/09/30 05:40:49;;;;;;;12.50;3.58;;;;;;;5.76;100.00;102630.66;5144254;28;20037;-78
2021/09/30 05:43:25;;;;;;;16.52;3.15;;;;;;;5.78;100.00;102623.44;5124574;28;20023;-78
2021/09/30 05:45:56;;;;;;;11.85;3.17;;;;;;;5.78;100.00;102631.44;5144515;28;20030;-78
2021/09/30 05:48:28;;;;;;;6.00;2.72;;;;;;;5.79;100.00;102628.66;5161430;28;20506;-78
2021/09/30 05:50:58;;;;;;;6.55;2.50;;;;;;;5.82;100.00;102625.81;5161669;28;20026;-78
2021/09/30 05:53:29;;;;;;;9.68;2.97;;;;;;;5.84;100.00;102623.91;5161546;28;20024;-78
2021/09/30 05:55:59;;;;;;;16.02;3.17;;;;;;;5.82;100.00;102620.47;5161754;28;20041;-78
2021/09/30 05:58:30;;;;;;;13.93;3.20;;;;;;;5.88;100.00;102619.28;5161235;28;20387;-78
2021/09/30 06:01:12;;;;;;;7.03;2.47;;;;;;;5.94;100.00;102608.28;5161513;28;20046;-78
2021/09/30 06:12:07;;;;;;;12.25;2.95;;;;;;;6.22;100.00;102604.75;5161520;28;20023;-78
2021/09/30 06:14:41;;;;;;;7.20;2.47;;;;;;;6.28;100.00;102601.72;5162380;28;20050;-79
2021/09/30 06:17:11;;;;;;;9.10;2.55;;;;;;;6.36;100.00;102614.56;5161448;28;20511;-79
2021/09/30 06:19:44;;;;;;;13.18;2.58;;;;;;;6.37;100.00;102610.94;5143995;28;20116;-79
2021/09/30 06:22:14;;;;;;;17.17;2.75;;;;;;;6.41;100.00;102607.13;5161789;28;20023;-79
2021/09/30 06:24:45;;;;;;;11.45;2.75;;;;;;;6.44;100.00;102605.13;5161767;28;20030;-79
2021/09/30 06:27:15;;;;;;;14.57;2.90;;;;;;;6.47;100.00;102610.25;5161163;28;20069;-79
2021/09/30 06:29:46;;;;;;;14.43;2.53;;;;;;;6.49;100.00;102605.72;5160429;28;20026;-79
2021/09/30 06:32:16;;;;;;;10.65;3.63;;;;;;;6.55;100.00;102598.28;5143968;28;20526;-79
2021/09/30 06:34:47;;;;;;;12.43;2.65;;;;;;;6.61;100.00;102604.06;5161533;28;20037;-79
2021/09/30 06:37:17;;;;;;;9.38;2.20;;;;;;;6.71;100.00;102607.84;5143460;28;20032;-79
2021/09/30 06:39:48;;;;;;;8.65;2.28;;;;;;;6.83;100.00;102606.22;5143575;28;20082;-78
2021/09/30 06:42:18;;;;;;;11.45;2.25;;;;;;;6.87;100.00;102613.06;5139647;28;20022;-79
2021/09/30 06:44:49;;;;;;;11.23;2.30;;;;;;;6.97;100.00;102615.97;5150543;28;20081;-79
2021/09/30 06:47:20;;;;;;;6.50;2.42;;;;;;;7.03;100.00;102610.28;5146876;28;20088;-79
2021/09/30 06:49:50;;;;;;;6.00;1.98;;;;;;;7.22;100.00;102610.75;5160911;28;20022;-78
2021/09/30 06:52:21;;;;;;;10.35;2.63;;;;;;;7.32;100.00;102608.31;5160819;28;20391;-79
2021/09/30 06:54:51;;;;;;;9.45;2.22;;;;;;;7.43;100.00;102616.50;5159666;28;20038;-78
2021/09/30 06:57:22;;;;;;;7.13;1.95;;;;;;;7.74;100.00;102614.41;5160408;28;20165;-80
2021/09/30 06:59:53;;;;;;;10.45;2.75;;;;;;;8.13;100.00;102617.94;5145321;28;20022;-79
2021/09/30 07:02:23;;;;;;;7.65;1.95;;;;;;;8.89;100.00;102622.38;5163575;28;20030;-79
2021/09/30 07:04:54;;;;;;;6.50;1.98;;;;;;;9.42;100.00;102614.84;5163029;28;20403;-79
2021/09/30 07:07:24;;;;;;;10.13;1.77;;;;;;;10.07;100.00;102615.13;5161796;28;20046;-79
2021/09/30 07:09:55;;;;;;;12.27;2.05;;;;;;;10.84;100.00;102620.66;5145044;28;20076;-80
2021/09/30 07:12:25;;;;;;;7.55;2.00;;;;;;;11.20;100.00;102617.75;5145510;28;20400;-79
2021/09/30 07:14:56;;;;;;;7.38;2.35;;;;;;;11.40;100.00;102625.00;5144373;28;20037;-79
2021/09/30 07:17:28;;;;;;;7.05;2.03;;;;;;;11.71;100.00;102627.81;5144010;28;20018;-80
2021/09/30 07:19:59;;;;;;;8.65;2.25;;;;;;;12.22;100.00;102624.31;5161863;28;20041;-79
2021/09/30 07:22:29;;;;;;;8.35;1.85;;;;;;;12.35;100.00;102624.94;5146946;28;20474;-78
2021/09/30 07:25:00;;;;;;;8.52;2.30;;;;;;;12.48;100.00;102633.66;5162055;28;20034;-79
2021/09/30 07:27:30;;;;;;;7.35;2.20;;;;;;;12.83;100.00;102630.50;5161313;28;20109;-79
2021/09/30 07:30:01;;;;;;;9.63;2.05;;;;;;;13.14;100.00;102633.13;5144195;28;20504;-79
2021/09/30 07:32:32;;;;;;;4.65;1.67;;;;;;;12.80;100.00;102621.84;5149091;28;20038;-79
2021/09/30 07:35:03;;;;;;;7.40;1.98;;;;;;;13.23;100.00;102628.78;5147559;28;20030;-80
2021/09/30 07:37:33;;;;;;;8.77;1.83;;;;;;;12.56;100.00;102628.44;5169831;28;20073;-81
2021/09/30 07:40:04;;;;;;;8.75;1.88;;;;;;;12.11;100.00;102627.94;5148452;28;20033;-79
2021/09/30 07:42:35;;;;;;;10.32;2.20;;;;;;;11.80;100.00;102637.78;5155287;28;20036;-79
2021/09/30 07:45:06;;;;;;;8.90;2.08;;;;;;;11.50;100.00;102638.53;5153867;28;20407;-80
2021/09/30 07:47:36;;;;;;;9.65;3.28;;;;;;;11.24;100.00;102638.84;5142991;28;20030;-78
2021/09/30 07:50:08;;;;;;;12.40;2.45;;;;;;;10.97;100.00;102643.81;5159964;28;20033;-78
2021/09/30 07:52:38;;;;;;;6.15;2.05;;;;;;;11.20;100.00;102641.94;5160280;28;20030;-78
2021/09/30 07:55:10;;;;;;;10.10;2.00;;;;;;;11.67;100.00;102646.88;5159472;28;20375;-79
2021/09/30 07:57:40;;;;;;;6.57;2.08;;;;;;;12.22;100.00;102654.78;5159801;28;20517;-78
2021/09/30 08:00:11;;;;;;;7.15;2.35;;;;;;;12.68;100.00;102651.59;5159185;28;20097;-79
2021/09/30 08:02:42;;;;;;;13.45;1.80;;;;;;;12.59;100.00;102654.22;5159754;28;20071;-79
2021/09/30 08:05:12;;;;;;;8.02;1.98;;;;;;;12.96;100.00;102655.38;5142980;28;20343;-80
2021/09/30 08:07:44;;;;;;;11.45;2.35;;;;;;;13.09;100.00;102657.78;5164423;28;20026;-79
2021/09/30 08:10:14;;;;;;;14.48;2.70;;;;;;;13.53;100.00;102662.84;5170215;28;20030;-78
2021/09/30 08:12:45;;;;;;;8.75;2.03;;;;;;;13.79;100.00;102650.47;5164179;28;20053;-79
2021/09/30 08:15:15;;;;;;;7.30;2.10;;;;;;;13.70;100.00;102657.59;5146383;28;20076;-80
2021/09/30 08:17:46;;;;;;;6.43;1.90;;;;;;;13.40;100.00;102661.28;5163855;28;20026;-79
2021/09/30 08:20:16;;;;;;;17.73;3.22;;;;;;;13.75;100.00;102654.44;5163541;28;20038;-78
2021/09/30 08:22:48;;;;;;;13.02;2.95;;;;;;;13.67;100.00;102657.88;5163599;28;20030;-79
2021/09/30 08:25:19;;;;;;;9.05;2.15;;;;;;;14.61;100.00;102652.59;5163666;28;20033;-79
2021/09/30 08:27:49;;;;;;;8.55;2.13;;;;;;;14.83;100.00;102658.59;5165446;28;20026;-77
2021/09/30 08:30:19;;;;;;;8.48;2.20;;;;;;;14.48;100.00;102646.66;5163496;28;20394;-79
2021/09/30 08:32:50;;;;;;;11.85;2.22;;;;;;;13.59;100.00;102656.88;5163323;28;20026;-78
2021/09/30 08:35:20;;;;;;;11.68;2.33;;;;;;;13.18;100.00;102648.88;5163478;28;20034;-78
2021/09/30 08:37:51;;;;;;;9.60;2.22;;;;;;;12.95;100.00;102648.28;5163548;28;20023;-77
2021/09/30 08:40:22;;;;;;;6.53;2.08;;;;;;;12.92;100.00;102645.84;5129589;28;20399;-78
2021/09/30 08:42:54;;;;;;;12.88;2.78;;;;;;;12.47;100.00;102652.63;5155023;28;20461;-78
2021/09/30 08:45:25;;;;;;;11.70;2.25;;;;;;;12.58;100.00;102648.00;5157977;28;20447;-79
2021/09/30 08:47:59;;;;;;;12.73;2.65;;;;;;;12.36;100.00;102648.19;5163166;28;20061;-80
2021/09/30 08:50:33;;;;;;;8.85;2.38;;;;;;;12.44;100.00;102640.28;5162611;28;20027;-79
2021/09/30 08:53:06;;;;;;;19.90;2.60;;;;;;;12.33;100.00;102646.59;5146043;28;20424;-79
2021/09/30 08:55:37;;;;;;;8.98;2.05;;;;;;;12.45;100.00;102650.09;5162997;28;20502;-78
2021/09/30 08:58:08;;;;;;;9.93;2.25;;;;;;;12.43;100.00;102647.50;5162863;28;20467;-78
2021/09/30 09:00:42;;;;;;;16.45;2.90;;;;;;;12.45;100.00;102644.72;5162478;28;20026;-78
2021/09/30 09:03:12;;;;;;;12.77;2.40;;;;;;;12.49;100.00;102650.66;5162668;28;20023;-78
2021/09/30 09:05:43;;;;;;;10.10;2.78;;;;;;;12.42;100.00;102648.50;5162706;28;20036;-79
2021/09/30 09:08:13;;;;;;;12.82;2.65;;;;;;;12.52;100.00;102648.56;5162406;28;20065;-78
2021/09/30 09:10:45;;;;;;;14.63;2.65;;;;;;;12.49;100.00;102643.41;5145216;28;20022;-78
2021/09/30 09:13:17;;;;;;;13.75;2.33;;;;;;;12.67;100.00;102646.34;5145486;28;20084;-78
2021/09/30 09:15:54;;;;;;;9.18;2.58;;;;;;;12.61;100.00;102636.97;5162887;28;20030;-78
2021/09/30 09:18:27;;;;;;;14.35;2.70;;;;;;;12.74;100.00;102649.34;5161953;28;20030;-78
2021/09/30 09:21:00;;;;;;;8.93;2.15;;;;;;;12.80;100.00;102643.38;5162310;28;20367;-79
2021/09/30 09:23:33;;;;;;;10.85;2.67;;;;;;;12.77;100.00;102627.53;5162587;28;20049;-78
2021/09/30 09:26:07;;;;;;;10.65;2.60;;;;;;;13.01;100.00;102643.31;5162758;28;20572;-79
2021/09/30 09:28:58;;;;;;;10.15;2.60;;;;;;;13.20;100.00;102646.91;5162435;28;20030;-79
2021/09/30 09:31:32;;;;;;;10.18;2.55;;;;;;;13.32;100.00;102644.09;5162507;28;20030;-79
2021/09/30 09:34:27;;;;;;;7.25;2.30;;;;;;;13.35;100.00;102638.41;5144702;28;20125;-78
2021/09/30 09:37:32;;;;;;;9.85;2.40;;;;;;;13.69;100.00;102630.75;5162207;28;20041;-79
2021/09/30 09:40:14;;;;;;;12.77;2.20;;;;;;;14.29;100.00;102625.94;5152515;28;20031;-78
2021/09/30 09:42:45;;;;;;;10.23;2.35;;;;;;;14.73;100.00;102627.06;5155424;28;20111;-79
2021/09/30 09:45:16;;;;;;;10.68;3.00;;;;;;;15.08;100.00;102611.91;5155724;28;20058;-77
2021/09/30 09:47:46;;;;;;;11.25;2.75;;;;;;;15.07;100.00;102618.34;5162952;28;20076;-78
2021/09/30 09:50:24;;;;;;;5.57;2.22;;;;;;;14.55;100.00;102612.66;5161606;28;20019;-78
2021/09/30 09:52:57;;;;;;;13.02;2.75;;;;;;;14.70;100.00;102613.00;5162358;28;20026;-78
2021/09/30 09:55:30;;;;;;;7.68;2.35;;;;;;;14.54;100.00;102607.41;5161828;28;20504;-78
2021/09/30 09:58:16;;;;;;;11.48;2.47;;;;;;;14.55;100.00;102606.41;5161321;28;20023;-78
2021/09/30 10:00:52;;;;;;;10.75;2.88;;;;;;;14.43;100.00;102600.31;5149737;28;20032;-78
2021/09/30 10:03:27;;;;;;;9.70;2.58;;;;;;;14.31;100.00;102596.97;5161583;28;20042;-78
2021/09/30 10:05:59;;;;;;;6.05;2.45;;;;;;;14.32;100.00;102600.50;5162049;28;20034;-79
2021/09/30 10:08:32;;;;;;;12.15;2.40;;;;;;;14.29;100.00;102595.41;5161540;28;20334;-78
2021/09/30 10:11:03;;;;;;;11.05;2.72;;;;;;;14.30;100.00;102599.78;5161437;28;20026;-78
2021/09/30 10:13:37;;;;;;;9.75;2.55;;;;;;;14.22;100.00;102597.84;5161478;28;20399;-78
2021/09/30 10:16:08;;;;;;;5.97;2.57;;;;;;;14.33;100.00;102596.81;5161895;28;20026;-78
2021/09/30 10:18:40;;;;;;;8.55;2.90;;;;;;;14.19;100.00;102601.69;5161236;28;20288;-78
2021/09/30 10:21:11;;;;;;;9.88;2.80;;;;;;;14.39;100.00;102588.09;5160742;28;20466;-79
2021/09/30 10:23:42;;;;;;;15.02;2.47;;;;;;;14.24;100.00;102595.84;5161521;28;20033;-78
2021/09/30 10:26:16;;;;;;;5.45;2.28;;;;;;;14.12;100.00;102589.78;5161251;28;20026;-79
2021/09/30 10:28:46;;;;;;;9.25;1.77;;;;;;;14.12;100.00;102581.69;5160892;28;20027;-79
2021/09/30 10:31:23;;;;;;;8.43;2.35;;;;;;;13.95;100.00;102588.69;5159907;28;20077;-79
2021/09/30 10:33:55;;;;;;;11.93;2.60;;;;;;;13.88;100.00;102581.31;5160641;28;20434;-79
2021/09/30 10:36:37;;;;;;;11.82;2.03;;;;;;;13.78;100.00;102580.50;5161418;28;20475;-79
2021/09/30 10:39:17;;;;;;;11.38;2.50;;;;;;;14.06;100.00;102573.34;5160627;28;20448;-78
2021/09/30 10:41:49;;;;;;;7.15;2.85;;;;;;;14.32;100.00;102582.47;5160646;28;20447;-79
2021/09/30 10:44:23;;;;;;;9.63;2.88;;;;;;;14.43;100.00;102576.84;5149168;28;20029;-80
2021/09/30 10:46:56;;;;;;;11.32;2.50;;;;;;;14.50;100.00;102577.13;5166178;28;20399;-80
2021/09/30 10:49:42;;;;;;;10.90;2.80;;;;;;;14.46;100.00;102573.03;5168559;28;20024;-81
2021/09/30 10:52:16;;;;;;;7.80;2.58;;;;;;;14.47;100.00;102572.03;5154418;28;20037;-82
2021/09/30 10:54:50;;;;;;;15.23;2.85;;;;;;;14.53;100.00;102567.91;5140172;28;20403;-80
2021/09/30 10:57:35;;;;;;;15.15;2.45;;;;;;;14.63;100.00;102564.13;5152474;28;20076;-80
2021/09/30 11:00:17;;;;;;;9.02;3.05;;;;;;;14.75;100.00;102568.31;5144092;28;20382;-80
2021/09/30 11:03:00;;;;;;;11.88;2.70;;;;;;;14.91;100.00;102561.38;5143478;28;20398;-80
2021/09/30 11:05:33;;;;;;;9.25;2.67;;;;;;;14.90;100.00;102565.94;5161236;28;20416;-79
2021/09/30 11:08:16;;;;;;;6.35;2.05;;;;;;;14.55;100.00;102566.72;5160800;28;20022;-79
2021/09/30 11:11:12;;;;;;;14.23;2.15;;;;;;;14.55;100.00;102568.59;5142828;28;20113;-77
2021/09/30 11:13:47;;;;;;;10.25;2.10;;;;;;;14.12;100.00;102557.41;5147635;28;20385;-78
2021/09/30 11:16:20;;;;;;;6.30;1.95;;;;;;;14.01;100.00;102562.97;5160970;28;20537;-77
2021/09/30 11:18:53;;;;;;;12.25;2.22;;;;;;;13.95;100.00;102555.44;5160141;28;20077;-77
2021/09/30 11:21:30;;;;;;;5.47;1.63;;;;;;;14.06;100.00;102563.38;5159823;28;20109;-77
2021/09/30 11:24:05;;;;;;;11.93;1.75;;;;;;;13.98;100.00;102557.88;5160153;28;20113;-77
2021/09/30 11:26:47;;;;;;;8.88;1.73;;;;;;;13.85;100.00;102551.94;5159975;28;20027;-77
2021/09/30 11:29:19;;;;;;;7.70;2.00;;;;;;;14.02;100.00;102553.03;5159694;28;20034;-77
2021/09/30 11:31:56;;;;;;;4.88;1.50;;;;;;;14.03;100.00;102544.78;5160008;28;20360;-77
2021/09/30 11:34:35;;;;;;;16.73;2.22;;;;;;;14.08;100.00;102542.50;5160804;28;20458;-77
2021/09/30 11:37:17;;;;;;;13.82;2.53;;;;;;;14.00;100.00;102543.22;5160667;28;20089;-77
2021/09/30 11:39:49;;;;;;;4.95;1.35;;;;;;;13.88;100.00;102544.41;5148902;28;20041;-77
2021/09/30 11:42:24;;;;;;;6.32;1.42;;;;;;;13.79;100.00;102539.03;5155651;28;20019;-76
2021/09/30 11:45:00;;;;;;;22.92;4.07;;;;;;;13.81;100.00;102535.22;5151159;28;20026;-77
2021/09/30 11:47:32;;;;;;;12.48;1.90;;;;;;;13.88;100.00;102532.78;5160150;28;20394;-77
2021/09/30 11:50:04;;;;;;;6.60;3.45;;;;;;;13.82;100.00;102530.66;5159471;28;20022;-78
2021/09/30 11:52:35;;;;;;;17.80;1.80;;;;;;;13.84;100.00;102531.34;5147375;28;20038;-78
2021/09/30 11:55:11;;;;;;;7.28;2.10;;;;;;;13.78;100.00;102532.78;5142262;28;20018;-78
2021/09/30 11:57:52;;;;;;;6.75;2.30;;;;;;;13.72;100.00;102528.84;5142331;28;20026;-78
2021/09/30 12:00:23;;;;;;;9.65;1.48;;;;;;;13.77;100.00;102523.00;5159344;28;20022;-77
2021/09/30 12:02:53;;;;;;;9.73;2.15;;;;;;;13.90;100.00;102520.81;5159159;28;20029;-78
2021/09/30 12:05:28;;;;;;;4.43;1.45;;;;;;;13.89;100.00;102510.19;5142423;28;20456;-78
2021/09/30 12:08:00;;;;;;;9.07;2.03;;;;;;;13.99;100.00;102511.00;5159541;28;20030;-77
2021/09/30 12:10:34;;;;;;;10.85;1.80;;;;;;;14.03;100.00;102516.94;5159222;28;20295;-78
2021/09/30 12:13:20;;;;;;;10.07;1.60;;;;;;;14.06;100.00;102508.56;5159548;28;20431;-77
2021/09/30 12:15:51;;;;;;;8.07;1.70;;;;;;;13.96;100.00;102504.06;5159860;28;20034;-78
2021/09/30 12:18:23;;;;;;;12.93;2.20;;;;;;;13.95;100.00;102501.50;5159542;28;20045;-78
2021/09/30 12:20:57;;;;;;;6.55;1.30;;;;;;;13.96;100.00;102504.06;5159272;28;20030;-78
2021/09/30 12:23:28;;;;;;;15.18;1.70;;;;;;;13.99;100.00;102502.91;5159971;28;20491;-78
2021/09/30 12:26:00;;;;;;;8.43;1.65;;;;;;;14.18;100.00;102500.13;5160325;28;20095;-78
2021/09/30 12:28:31;;;;;;;6.50;1.80;;;;;;;14.36;100.00;102497.47;5159969;28;20037;-78
2021/09/30 12:31:05;;;;;;;8.80;1.60;;;;;;;14.53;100.00;102500.38;5141799;28;20058;-77
2021/09/30 12:33:35;;;;;;;8.93;1.88;;;;;;;14.69;100.00;102495.16;5159283;28;20023;-78
2021/09/30 12:36:06;;;;;;;6.60;1.70;;;;;;;14.63;100.00;102495.75;5159519;28;20089;-77
2021/09/30 12:38:39;;;;;;;14.00;2.22;;;;;;;14.67;100.00;102492.59;5133698;28;20544;-77
2021/09/30 12:41:20;;;;;;;8.00;1.75;;;;;;;14.63;100.00;102491.22;5152591;28;20066;-77
2021/09/30 12:43:51;;;;;;;10.63;2.00;;;;;;;14.62;100.00;102483.28;5143596;28;20038;-77
2021/09/30 12:46:21;;;;;;;10.15;2.10;;;;;;;14.69;100.00;102482.50;5158535;28;20022;-77
2021/09/30 12:49:02;;;;;;;9.45;2.03;;;;;;;14.59;100.00;102475.47;5140193;28;20026;-77
2021/09/30 12:51:33;;;;;;;5.90;1.75;;;;;;;14.58;100.00;102477.31;5140643;28;20030;-77
2021/09/30 12:54:03;;;;;;;8.02;2.10;;;;;;;14.34;100.00;102479.72;5160697;28;20022;-77
2021/09/30 12:56:35;;;;;;;8.57;1.92;;;;;;;14.40;100.00;102482.66;5162510;28;20378;-77
2021/09/30 12:59:12;;;;;;;5.40;1.70;;;;;;;14.62;100.00;102473.31;5161356;28;20509;-78
2021/09/30 13:01:43;;;;;;;13.20;2.13;;;;;;;14.73;100.00;102461.44;5144056;28;20033;-76
2021/09/30 13:04:23;;;;;;;8.23;1.80;;;;;;;14.81;100.00;102455.22;5162455;28;20029;-76
2021/09/30 13:07:01;;;;;;;13.02;2.53;;;;;;;14.80;100.00;102456.25;5161686;28;20030;-77
2021/09/30 13:09:35;;;;;;;6.65;1.80;;;;;;;14.59;100.00;102446.59;5143755;28;20162;-78
2021/09/30 13:12:14;;;;;;;10.65;1.90;;;;;;;14.63;100.00;102448.00;5149030;28;20418;-77
2021/09/30 13:14:48;;;;;;;10.23;2.60;;;;;;;14.62;100.00;102443.59;5161613;28;20029;-76
2021/09/30 13:17:26;;;;;;;11.65;2.33;;;;;;;14.60;100.00;102440.19;5161579;28;20030;-76
2021/09/30 13:20:01;;;;;;;11.18;2.20;;;;;;;14.50;100.00;102452.91;5143467;28;20112;-76
2021/09/30 13:22:39;;;;;;;16.73;3.28;;;;;;;14.58;100.00;102444.91;5161876;28;20036;-77
2021/09/30 13:25:14;;;;;;;7.95;2.10;;;;;;;14.77;100.00;102436.66;5148477;28;20034;-76
2021/09/30 13:27:48;;;;;;;13.43;2.15;;;;;;;14.94;100.00;102437.63;5161624;28;20105;-76
2021/09/30 13:30:22;;;;;;;12.10;2.50;;;;;;;14.98;100.00;102417.41;5160752;28;20675;-76
2021/09/30 13:32:57;;;;;;;6.57;2.30;;;;;;;15.05;100.00;102420.31;5143862;28;20030;-76
2021/09/30 13:35:32;;;;;;;9.02;2.58;;;;;;;15.00;100.00;102407.28;5161254;28;20030;-76
2021/09/30 13:38:02;;;;;;;11.57;2.30;;;;;;;15.10;100.00;102407.16;5131107;28;20022;-77
2021/09/30 13:40:33;;;;;;;13.45;2.90;;;;;;;15.02;100.00;102415.25;5160008;28;20498;-76
2021/09/30 13:43:03;;;;;;;11.57;2.05;;;;;;;14.84;100.00;102406.31;5151576;28;20064;-76
2021/09/30 13:45:34;;;;;;;14.27;2.38;;;;;;;14.95;100.00;102401.50;5156017;28;20439;-76
2021/09/30 13:48:04;;;;;;;8.02;2.45;;;;;;;15.18;100.00;102398.28;5161368;28;20030;-76
2021/09/30 13:50:35;;;;;;;8.32;2.35;;;;;;;15.16;100.00;102386.75;5160322;28;20026;-77
2021/09/30 13:53:05;;;;;;;17.50;3.33;;;;;;;15.13;100.00;102392.50;5143686;28;20041;-76
2021/09/30 13:55:36;;;;;;;10.95;2.47;;;;;;;14.91;100.00;102389.31;5161006;28;20105;-77
2021/09/30 13:58:06;;;;;;;8.85;2.05;;;;;;;14.69;100.00;102387.09;5160930;28;20033;-77
2021/09/30 14:00:38;;;;;;;10.23;2.35;;;;;;;14.68;100.00;102382.72;5160092;28;20050;-76
2021/09/30 14:03:08;;;;;;;7.60;2.47;;;;;;;14.68;100.00;102380.84;5160598;28;20383;-76
2021/09/30 14:05:39;;;;;;;10.65;2.67;;;;;;;14.55;100.00;102376.84;5143367;28;20109;-76
2021/09/30 14:08:12;;;;;;;8.77;2.13;;;;;;;14.57;100.00;102375.69;5160044;28;20026;-77
2021/09/30 14:10:42;;;;;;;8.65;1.52;;;;;;;14.80;100.00;102361.69;5159873;28;20050;-77